sensor_id;sensor_type;location;lat;lon;timestamp;temperature;humidity
1367;DHT22;16877;48.810;9.282;2023-11-21T00:00:19;17.30;70.30
1367;DHT22;16877;48.810;9.282;2023-11-21T00:02:46;17.40;70.50
1367;DHT22;16877;48.810;9.282;2023-11-21T00:05:14;17.40;70.40
1367;DHT22;16877;48.810;9.282;2023-11-21T00:07:41;17.60;71.10
1367;DHT22;16877;48.810;9.282;2023-11-21T00:10:09;17.10;71.00
1367;DHT22;16877;48.810;9.282;2023-11-21T00:12:37;17.30;71.10
1367;DHT22;16877;48.810;9.282;2023-11-21T00:15:06;17.20;71.10
1367;DHT22;16877;48.810;9.282;2023-11-21T00:17:34;17.40;71.30
1367;DHT22;16877;48.810;9.282;2023-11-21T00:20:01;17.20;71.20
1367;DHT22;16877;48.810;9.282;2023-11-21T00:22:31;17.40;71.50
1367;DHT22;16877;48.810;9.282;2023-11-21T00:24:58;17.20;71.20
1367;DHT22;16877;48.810;9.282;2023-11-21T00:44:17;17.10;71.80
1367;DHT22;16877;48.810;9.282;2023-11-21T00:46:44;17.20;72.00
1367;DHT22;16877;48.810;9.282;2023-11-21T00:49:10;17.20;72.20
1367;DHT22;16877;48.810;9.282;2023-11-21T00:51:37;17.10;72.20
1367;DHT22;16877;48.810;9.282;2023-11-21T00:54:04;17.10;72.10
1367;DHT22;16877;48.810;9.282;2023-11-21T00:56:32;17.00;72.50
1367;DHT22;16877;48.810;9.282;2023-11-21T00:58:59;17.30;72.00
1367;DHT22;16877;48.810;9.282;2023-11-21T01:01:27;17.20;71.90
1367;DHT22;16877;48.810;9.282;2023-11-21T01:03:54;17.40;72.20
1367;DHT22;16877;48.810;9.282;2023-11-21T01:06:20;17.30;72.40
1367;DHT22;16877;48.810;9.282;2023-11-21T01:08:47;17.20;72.40
1367;DHT22;16877;48.810;9.282;2023-11-21T01:11:14;17.00;72.00
1367;DHT22;16877;48.810;9.282;2023-11-21T01:13:41;17.20;72.40
1367;DHT22;16877;48.810;9.282;2023-11-21T01:16:08;17.10;72.10
1367;DHT22;16877;48.810;9.282;2023-11-21T01:18:37;17.00;72.00
1367;DHT22;16877;48.810;9.282;2023-11-21T01:21:04;16.90;71.90
1367;DHT22;16877;48.810;9.282;2023-11-21T01:23:31;17.10;72.30
1367;DHT22;16877;48.810;9.282;2023-11-21T01:25:57;17.20;72.30
1367;DHT22;16877;48.810;9.282;2023-11-21T01:28:30;17.10;72.20
1367;DHT22;16877;48.810;9.282;2023-11-21T01:30:57;17.30;72.60
1367;DHT22;16877;48.810;9.282;2023-11-21T01:33:24;16.90;72.30
1367;DHT22;16877;48.810;9.282;2023-11-21T01:35:52;16.90;72.70
1367;DHT22;16877;48.810;9.282;2023-11-21T01:38:20;17.20;73.40
1367;DHT22;16877;48.810;9.282;2023-11-21T01:40:47;17.30;73.80
1367;DHT22;16877;48.810;9.282;2023-11-21T01:43:14;17.10;73.50
1367;DHT22;16877;48.810;9.282;2023-11-21T01:45:42;17.10;73.40
1367;DHT22;16877;48.810;9.282;2023-11-21T01:48:10;17.30;73.80
1367;DHT22;16877;48.810;9.282;2023-11-21T01:50:38;17.40;74.00
1367;DHT22;16877;48.810;9.282;2023-11-21T01:53:06;17.30;73.70
1367;DHT22;16877;48.810;9.282;2023-11-21T01:55:33;17.20;73.50
1367;DHT22;16877;48.810;9.282;2023-11-21T01:58:00;17.20;73.70
1367;DHT22;16877;48.810;9.282;2023-11-21T02:00:27;17.40;73.70
1367;DHT22;16877;48.810;9.282;2023-11-21T02:02:54;17.30;73.40
1367;DHT22;16877;48.810;9.282;2023-11-21T02:05:22;17.20;73.30
1367;DHT22;16877;48.810;9.282;2023-11-21T02:07:48;17.30;73.40
1367;DHT22;16877;48.810;9.282;2023-11-21T02:10:19;17.10;73.10
1367;DHT22;16877;48.810;9.282;2023-11-21T02:12:48;17.30;73.40
1367;DHT22;16877;48.810;9.282;2023-11-21T02:15:16;17.30;73.40
1367;DHT22;16877;48.810;9.282;2023-11-21T02:17:46;17.50;73.50
1367;DHT22;16877;48.810;9.282;2023-11-21T02:20:15;17.60;73.60
1367;DHT22;16877;48.810;9.282;2023-11-21T02:22:43;17.10;73.00
1367;DHT22;16877;48.810;9.282;2023-11-21T02:25:12;17.10;73.10
1367;DHT22;16877;48.810;9.282;2023-11-21T02:27:39;17.00;72.60
1367;DHT22;16877;48.810;9.282;2023-11-21T02:30:08;17.40;72.80
1367;DHT22;16877;48.810;9.282;2023-11-21T02:32:38;17.20;72.60
1367;DHT22;16877;48.810;9.282;2023-11-21T02:35:06;17.30;72.60
1367;DHT22;16877;48.810;9.282;2023-11-21T02:37:33;17.20;72.50
1367;DHT22;16877;48.810;9.282;2023-11-21T02:40:00;17.30;72.80
1367;DHT22;16877;48.810;9.282;2023-11-21T02:42:30;17.00;72.50
1367;DHT22;16877;48.810;9.282;2023-11-21T02:44:57;17.00;72.70
1367;DHT22;16877;48.810;9.282;2023-11-21T02:47:23;17.30;73.00
1367;DHT22;16877;48.810;9.282;2023-11-21T02:49:50;17.20;73.00
1367;DHT22;16877;48.810;9.282;2023-11-21T02:52:17;17.30;73.00
1367;DHT22;16877;48.810;9.282;2023-11-21T02:54:44;17.40;73.20
1367;DHT22;16877;48.810;9.282;2023-11-21T02:57:11;17.40;73.00
1367;DHT22;16877;48.810;9.282;2023-11-21T02:59:39;17.40;73.80
1367;DHT22;16877;48.810;9.282;2023-11-21T03:02:05;17.20;72.50
1367;DHT22;16877;48.810;9.282;2023-11-21T03:04:34;17.40;72.90
1367;DHT22;16877;48.810;9.282;2023-11-21T03:07:00;17.20;72.50
1367;DHT22;16877;48.810;9.282;2023-11-21T03:09:27;17.40;72.90
1367;DHT22;16877;48.810;9.282;2023-11-21T03:11:54;17.40;72.50
1367;DHT22;16877;48.810;9.282;2023-11-21T03:14:20;17.30;72.40
1367;DHT22;16877;48.810;9.282;2023-11-21T03:16:49;17.30;72.40
1367;DHT22;16877;48.810;9.282;2023-11-21T03:19:16;17.30;72.60
1367;DHT22;16877;48.810;9.282;2023-11-21T03:21:42;17.20;72.60
1367;DHT22;16877;48.810;9.282;2023-11-21T03:24:09;17.10;72.30
1367;DHT22;16877;48.810;9.282;2023-11-21T03:26:36;17.40;72.70
1367;DHT22;16877;48.810;9.282;2023-11-21T03:29:03;17.20;72.50
1367;DHT22;16877;48.810;9.282;2023-11-21T03:31:30;17.20;72.40
1367;DHT22;16877;48.810;9.282;2023-11-21T03:33:58;17.50;72.80
1367;DHT22;16877;48.810;9.282;2023-11-21T03:36:25;17.20;72.40
1367;DHT22;16877;48.810;9.282;2023-11-21T03:38:52;17.20;72.60
1367;DHT22;16877;48.810;9.282;2023-11-21T03:41:19;17.50;72.80
1367;DHT22;16877;48.810;9.282;2023-11-21T03:43:45;17.30;72.50
1367;DHT22;16877;48.810;9.282;2023-11-21T03:46:12;17.10;72.30
1367;DHT22;16877;48.810;9.282;2023-11-21T03:48:39;17.50;72.80
1367;DHT22;16877;48.810;9.282;2023-11-21T03:51:07;17.40;72.60
1367;DHT22;16877;48.810;9.282;2023-11-21T03:53:34;17.60;72.90
1367;DHT22;16877;48.810;9.282;2023-11-21T03:56:02;17.30;72.30
1367;DHT22;16877;48.810;9.282;2023-11-21T03:58:29;17.30;72.30
1367;DHT22;16877;48.810;9.282;2023-11-21T04:00:56;16.90;71.80
1367;DHT22;16877;48.810;9.282;2023-11-21T04:03:22;17.30;72.50
1367;DHT22;16877;48.810;9.282;2023-11-21T04:05:49;17.40;72.40
1367;DHT22;16877;48.810;9.282;2023-11-21T04:08:17;17.20;72.50
1367;DHT22;16877;48.810;9.282;2023-11-21T04:10:44;17.10;72.00
1367;DHT22;16877;48.810;9.282;2023-11-21T04:13:10;17.30;72.50
1367;DHT22;16877;48.810;9.282;2023-11-21T04:15:37;17.20;72.30
1367;DHT22;16877;48.810;9.282;2023-11-21T04:18:04;17.20;72.20
1367;DHT22;16877;48.810;9.282;2023-11-21T04:20:30;17.40;72.60
1367;DHT22;16877;48.810;9.282;2023-11-21T04:22:57;17.30;72.40
1367;DHT22;16877;48.810;9.282;2023-11-21T04:25:25;17.20;72.30
1367;DHT22;16877;48.810;9.282;2023-11-21T04:27:52;17.50;72.80
1367;DHT22;16877;48.810;9.282;2023-11-21T04:30:19;17.40;72.80
1367;DHT22;16877;48.810;9.282;2023-11-21T04:32:46;17.00;72.10
1367;DHT22;16877;48.810;9.282;2023-11-21T04:35:13;17.20;72.30
1367;DHT22;16877;48.810;9.282;2023-11-21T04:37:40;17.30;72.60
1367;DHT22;16877;48.810;9.282;2023-11-21T04:40:08;17.40;72.70
1367;DHT22;16877;48.810;9.282;2023-11-21T04:42:36;17.70;73.20
1367;DHT22;16877;48.810;9.282;2023-11-21T04:45:04;17.50;73.00
1367;DHT22;16877;48.810;9.282;2023-11-21T04:47:34;17.40;72.70
1367;DHT22;16877;48.810;9.282;2023-11-21T04:50:00;17.30;72.50
1367;DHT22;16877;48.810;9.282;2023-11-21T04:52:28;17.50;72.80
1367;DHT22;16877;48.810;9.282;2023-11-21T04:54:55;17.40;72.70
1367;DHT22;16877;48.810;9.282;2023-11-21T04:57:23;17.50;73.00
1367;DHT22;16877;48.810;9.282;2023-11-21T04:59:51;17.50;73.00
1367;DHT22;16877;48.810;9.282;2023-11-21T05:02:18;17.40;72.90
1367;DHT22;16877;48.810;9.282;2023-11-21T05:04:46;17.20;72.70
1367;DHT22;16877;48.810;9.282;2023-11-21T05:07:13;17.50;73.10
1367;DHT22;16877;48.810;9.282;2023-11-21T05:09:41;17.20;72.70
1367;DHT22;16877;48.810;9.282;2023-11-21T05:12:09;17.70;74.10
1367;DHT22;16877;48.810;9.282;2023-11-21T05:14:36;17.40;73.00
1367;DHT22;16877;48.810;9.282;2023-11-21T05:17:04;17.40;73.00
1367;DHT22;16877;48.810;9.282;2023-11-21T05:19:33;17.50;72.90
1367;DHT22;16877;48.810;9.282;2023-11-21T05:22:00;17.20;72.40
1367;DHT22;16877;48.810;9.282;2023-11-21T05:24:27;17.30;72.50
1367;DHT22;16877;48.810;9.282;2023-11-21T05:26:54;17.30;72.40
1367;DHT22;16877;48.810;9.282;2023-11-21T05:29:22;17.30;72.30
1367;DHT22;16877;48.810;9.282;2023-11-21T05:31:48;17.10;72.40
1367;DHT22;16877;48.810;9.282;2023-11-21T05:34:17;17.40;72.70
1367;DHT22;16877;48.810;9.282;2023-11-21T05:36:43;17.30;72.20
1367;DHT22;16877;48.810;9.282;2023-11-21T05:39:11;17.20;73.10
1367;DHT22;16877;48.810;9.282;2023-11-21T05:41:37;17.30;72.00
1367;DHT22;16877;48.810;9.282;2023-11-21T05:44:04;17.20;72.00
1367;DHT22;16877;48.810;9.282;2023-11-21T05:46:31;17.10;72.10
1367;DHT22;16877;48.810;9.282;2023-11-21T05:48:58;17.20;72.40
1367;DHT22;16877;48.810;9.282;2023-11-21T05:51:36;17.20;72.30
1367;DHT22;16877;48.810;9.282;2023-11-21T05:54:03;17.10;72.20
1367;DHT22;16877;48.810;9.282;2023-11-21T05:56:30;17.10;72.30
1367;DHT22;16877;48.810;9.282;2023-11-21T05:58:57;17.30;72.50
1367;DHT22;16877;48.810;9.282;2023-11-21T06:01:24;17.50;72.90
1367;DHT22;16877;48.810;9.282;2023-11-21T06:03:53;17.10;72.20
1367;DHT22;16877;48.810;9.282;2023-11-21T06:06:20;17.10;72.20
1367;DHT22;16877;48.810;9.282;2023-11-21T06:08:51;17.10;72.10
1367;DHT22;16877;48.810;9.282;2023-11-21T06:11:18;17.10;71.90
1367;DHT22;16877;48.810;9.282;2023-11-21T06:13:44;17.20;72.20
1367;DHT22;16877;48.810;9.282;2023-11-21T06:16:11;17.00;72.10
1367;DHT22;16877;48.810;9.282;2023-11-21T06:18:41;17.30;72.20
1367;DHT22;16877;48.810;9.282;2023-11-21T06:21:09;17.50;72.50
1367;DHT22;16877;48.810;9.282;2023-11-21T06:23:36;17.20;72.00
1367;DHT22;16877;48.810;9.282;2023-11-21T06:26:04;17.20;72.00
1367;DHT22;16877;48.810;9.282;2023-11-21T06:28:31;17.20;72.20
1367;DHT22;16877;48.810;9.282;2023-11-21T06:30:59;17.30;72.20
1367;DHT22;16877;48.810;9.282;2023-11-21T06:33:30;17.30;72.20
1367;DHT22;16877;48.810;9.282;2023-11-21T06:35:57;17.30;72.40
1367;DHT22;16877;48.810;9.282;2023-11-21T06:38:23;17.00;72.10
1367;DHT22;16877;48.810;9.282;2023-11-21T06:40:50;17.20;72.50
1367;DHT22;16877;48.810;9.282;2023-11-21T06:43:18;17.20;72.10
1367;DHT22;16877;48.810;9.282;2023-11-21T06:45:47;17.30;72.40
1367;DHT22;16877;48.810;9.282;2023-11-21T06:48:14;17.30;72.50
1367;DHT22;16877;48.810;9.282;2023-11-21T06:50:41;17.20;72.10
1367;DHT22;16877;48.810;9.282;2023-11-21T06:53:08;17.30;72.20
1367;DHT22;16877;48.810;9.282;2023-11-21T06:55:35;17.30;72.20
1367;DHT22;16877;48.810;9.282;2023-11-21T06:58:02;17.20;72.20
1367;DHT22;16877;48.810;9.282;2023-11-21T07:00:31;17.20;72.10
1367;DHT22;16877;48.810;9.282;2023-11-21T07:02:59;17.30;72.40
1367;DHT22;16877;48.810;9.282;2023-11-21T07:05:25;17.30;72.30
1367;DHT22;16877;48.810;9.282;2023-11-21T07:07:52;17.30;72.50
1367;DHT22;16877;48.810;9.282;2023-11-21T07:10:19;17.50;72.80
1367;DHT22;16877;48.810;9.282;2023-11-21T07:12:46;17.20;72.20
1367;DHT22;16877;48.810;9.282;2023-11-21T07:15:13;17.30;72.40
1367;DHT22;16877;48.810;9.282;2023-11-21T07:17:41;17.50;72.50
1367;DHT22;16877;48.810;9.282;2023-11-21T07:20:09;17.20;72.00
1367;DHT22;16877;48.810;9.282;2023-11-21T07:22:36;17.40;72.20
1367;DHT22;16877;48.810;9.282;2023-11-21T07:25:04;17.40;72.30
1367;DHT22;16877;48.810;9.282;2023-11-21T07:27:31;17.50;72.30
1367;DHT22;16877;48.810;9.282;2023-11-21T07:29:59;17.50;72.30
1367;DHT22;16877;48.810;9.282;2023-11-21T07:32:26;17.70;72.70
1367;DHT22;16877;48.810;9.282;2023-11-21T07:34:54;17.30;72.00
1367;DHT22;16877;48.810;9.282;2023-11-21T07:37:22;17.60;72.30
1367;DHT22;16877;48.810;9.282;2023-11-21T07:39:49;17.60;72.20
1367;DHT22;16877;48.810;9.282;2023-11-21T07:42:20;17.50;72.00
1367;DHT22;16877;48.810;9.282;2023-11-21T07:44:47;17.70;72.30
1367;DHT22;16877;48.810;9.282;2023-11-21T07:47:15;17.50;72.00
1367;DHT22;16877;48.810;9.282;2023-11-21T07:49:42;17.70;72.00
1367;DHT22;16877;48.810;9.282;2023-11-21T07:52:11;17.80;72.00
1367;DHT22;16877;48.810;9.282;2023-11-21T07:54:38;17.80;72.10
1367;DHT22;16877;48.810;9.282;2023-11-21T07:57:05;17.80;72.00
1367;DHT22;16877;48.810;9.282;2023-11-21T07:59:31;18.10;72.10
1367;DHT22;16877;48.810;9.282;2023-11-21T08:01:58;17.90;71.70
1367;DHT22;16877;48.810;9.282;2023-11-21T08:04:25;17.70;71.40
1367;DHT22;16877;48.810;9.282;2023-11-21T08:06:51;17.70;71.70
1367;DHT22;16877;48.810;9.282;2023-11-21T08:09:19;17.90;71.70
1367;DHT22;16877;48.810;9.282;2023-11-21T08:11:49;18.00;72.10
1367;DHT22;16877;48.810;9.282;2023-11-21T08:14:17;17.60;71.40
1367;DHT22;16877;48.810;9.282;2023-11-21T08:16:44;17.70;71.40
1367;DHT22;16877;48.810;9.282;2023-11-21T08:19:10;17.90;71.80
1367;DHT22;16877;48.810;9.282;2023-11-21T08:21:37;17.80;71.80
1367;DHT22;16877;48.810;9.282;2023-11-21T08:24:06;18.00;71.80
1367;DHT22;16877;48.810;9.282;2023-11-21T08:26:37;18.10;72.20
1367;DHT22;16877;48.810;9.282;2023-11-21T08:29:04;17.80;71.60
1367;DHT22;16877;48.810;9.282;2023-11-21T08:31:32;17.90;71.90
1367;DHT22;16877;48.810;9.282;2023-11-21T08:33:59;18.00;71.80
1367;DHT22;16877;48.810;9.282;2023-11-21T08:36:28;18.20;72.20
1367;DHT22;16877;48.810;9.282;2023-11-21T08:38:56;17.70;71.60
1367;DHT22;16877;48.810;9.282;2023-11-21T08:41:23;17.90;71.90
1367;DHT22;16877;48.810;9.282;2023-11-21T08:43:51;17.80;71.70
1367;DHT22;16877;48.810;9.282;2023-11-21T08:46:19;18.20;72.10
1367;DHT22;16877;48.810;9.282;2023-11-21T08:48:46;18.00;72.00
1367;DHT22;16877;48.810;9.282;2023-11-21T08:51:12;18.10;71.90
1367;DHT22;16877;48.810;9.282;2023-11-21T08:53:39;18.10;72.40
1367;DHT22;16877;48.810;9.282;2023-11-21T08:56:07;18.10;71.60
1367;DHT22;16877;48.810;9.282;2023-11-21T08:58:34;18.10;71.70
1367;DHT22;16877;48.810;9.282;2023-11-21T09:01:04;18.20;72.20
1367;DHT22;16877;48.810;9.282;2023-11-21T09:03:31;17.90;71.70
1367;DHT22;16877;48.810;9.282;2023-11-21T09:05:59;18.20;72.20
1367;DHT22;16877;48.810;9.282;2023-11-21T09:08:26;18.30;72.10
1367;DHT22;16877;48.810;9.282;2023-11-21T09:10:54;18.30;72.30
1367;DHT22;16877;48.810;9.282;2023-11-21T09:13:20;18.50;72.20
1367;DHT22;16877;48.810;9.282;2023-11-21T09:15:47;18.40;71.90
1367;DHT22;16877;48.810;9.282;2023-11-21T09:18:16;18.60;72.10
1367;DHT22;16877;48.810;9.282;2023-11-21T09:20:43;18.70;72.00
1367;DHT22;16877;48.810;9.282;2023-11-21T09:23:10;18.80;72.30
1367;DHT22;16877;48.810;9.282;2023-11-21T09:25:37;18.80;71.90
1367;DHT22;16877;48.810;9.282;2023-11-21T09:28:04;18.50;72.70
1367;DHT22;16877;48.810;9.282;2023-11-21T09:30:33;18.90;73.00
1367;DHT22;16877;48.810;9.282;2023-11-21T09:33:00;18.80;71.70
1367;DHT22;16877;48.810;9.282;2023-11-21T09:35:28;19.10;71.30
1367;DHT22;16877;48.810;9.282;2023-11-21T09:37:55;19.20;71.20
1367;DHT22;16877;48.810;9.282;2023-11-21T09:40:22;19.70;71.30
1367;DHT22;16877;48.810;9.282;2023-11-21T09:42:53;19.70;71.40
1367;DHT22;16877;48.810;9.282;2023-11-21T09:45:24;19.90;71.20
1367;DHT22;16877;48.810;9.282;2023-11-21T09:47:52;19.90;71.00
1367;DHT22;16877;48.810;9.282;2023-11-21T09:50:20;20.00;71.00
1367;DHT22;16877;48.810;9.282;2023-11-21T09:52:57;20.00;70.80
1367;DHT22;16877;48.810;9.282;2023-11-21T09:55:27;20.10;70.50
1367;DHT22;16877;48.810;9.282;2023-11-21T09:57:56;20.10;70.50
1367;DHT22;16877;48.810;9.282;2023-11-21T10:00:23;20.00;70.20
1367;DHT22;16877;48.810;9.282;2023-11-21T10:02:51;19.70;69.50
1367;DHT22;16877;48.810;9.282;2023-11-21T10:05:18;20.20;70.00
1367;DHT22;16877;48.810;9.282;2023-11-21T10:07:46;20.20;70.10
1367;DHT22;16877;48.810;9.282;2023-11-21T10:10:23;20.00;69.70
1367;DHT22;16877;48.810;9.282;2023-11-21T10:12:54;20.00;69.50
1367;DHT22;16877;48.810;9.282;2023-11-21T10:15:22;19.80;69.40
1367;DHT22;16877;48.810;9.282;2023-11-21T10:17:52;20.00;69.50
1367;DHT22;16877;48.810;9.282;2023-11-21T10:20:19;19.90;69.30
1367;DHT22;16877;48.810;9.282;2023-11-21T10:22:46;19.80;69.40
1367;DHT22;16877;48.810;9.282;2023-11-21T10:25:13;19.90;69.60
1367;DHT22;16877;48.810;9.282;2023-11-21T10:27:42;19.80;69.30
1367;DHT22;16877;48.810;9.282;2023-11-21T10:30:10;19.90;69.40
1367;DHT22;16877;48.810;9.282;2023-11-21T10:32:37;19.70;69.10
1367;DHT22;16877;48.810;9.282;2023-11-21T10:35:06;19.60;69.00
1367;DHT22;16877;48.810;9.282;2023-11-21T10:37:35;19.70;69.50
1367;DHT22;16877;48.810;9.282;2023-11-21T10:40:05;19.60;69.20
1367;DHT22;16877;48.810;9.282;2023-11-21T10:42:32;19.80;69.20
1367;DHT22;16877;48.810;9.282;2023-11-21T10:45:00;19.80;69.40
1367;DHT22;16877;48.810;9.282;2023-11-21T10:47:28;19.90;69.90
1367;DHT22;16877;48.810;9.282;2023-11-21T10:49:55;19.60;69.70
1367;DHT22;16877;48.810;9.282;2023-11-21T10:52:27;19.40;69.50
1367;DHT22;16877;48.810;9.282;2023-11-21T10:54:54;19.80;70.00
1367;DHT22;16877;48.810;9.282;2023-11-21T10:57:22;19.60;70.10
1367;DHT22;16877;48.810;9.282;2023-11-21T10:59:49;19.40;69.80
1367;DHT22;16877;48.810;9.282;2023-11-21T11:02:23;19.50;69.90
1367;DHT22;16877;48.810;9.282;2023-11-21T11:04:54;19.50;70.00
1367;DHT22;16877;48.810;9.282;2023-11-21T11:07:24;19.40;70.20
1367;DHT22;16877;48.810;9.282;2023-11-21T11:09:53;19.30;70.30
1367;DHT22;16877;48.810;9.282;2023-11-21T11:12:19;19.70;70.70
1367;DHT22;16877;48.810;9.282;2023-11-21T11:14:46;19.20;70.10
1367;DHT22;16877;48.810;9.282;2023-11-21T11:17:14;19.20;70.10
1367;DHT22;16877;48.810;9.282;2023-11-21T11:19:42;19.40;70.40
1367;DHT22;16877;48.810;9.282;2023-11-21T11:22:19;19.30;70.40
1367;DHT22;16877;48.810;9.282;2023-11-21T11:25:14;19.30;70.70
1367;DHT22;16877;48.810;9.282;2023-11-21T11:27:52;19.50;70.80
1367;DHT22;16877;48.810;9.282;2023-11-21T11:30:32;19.60;71.00
1367;DHT22;16877;48.810;9.282;2023-11-21T11:33:10;20.00;71.30
1367;DHT22;16877;48.810;9.282;2023-11-21T11:35:46;20.10;71.40
1367;DHT22;16877;48.810;9.282;2023-11-21T11:38:16;19.80;70.90
1367;DHT22;16877;48.810;9.282;2023-11-21T11:40:45;20.00;71.20
1367;DHT22;16877;48.810;9.282;2023-11-21T11:43:12;19.80;71.00
1367;DHT22;16877;48.810;9.282;2023-11-21T11:45:39;19.80;70.70
1367;DHT22;16877;48.810;9.282;2023-11-21T11:48:07;20.00;70.80
1367;DHT22;16877;48.810;9.282;2023-11-21T11:50:34;20.40;71.20
1367;DHT22;16877;48.810;9.282;2023-11-21T11:53:14;19.90;70.50
1367;DHT22;16877;48.810;9.282;2023-11-21T11:55:41;20.10;70.50
1367;DHT22;16877;48.810;9.282;2023-11-21T11:58:08;19.80;70.00
1367;DHT22;16877;48.810;9.282;2023-11-21T12:00:35;20.10;70.20
1367;DHT22;16877;48.810;9.282;2023-11-21T12:03:04;20.10;70.20
1367;DHT22;16877;48.810;9.282;2023-11-21T12:05:33;19.90;69.70
1367;DHT22;16877;48.810;9.282;2023-11-21T12:08:05;20.10;69.90
1367;DHT22;16877;48.810;9.282;2023-11-21T12:10:36;20.00;69.90
1367;DHT22;16877;48.810;9.282;2023-11-21T12:13:08;20.10;72.20
1367;DHT22;16877;48.810;9.282;2023-11-21T12:15:36;20.40;77.20
1367;DHT22;16877;48.810;9.282;2023-11-21T12:18:03;20.40;75.20
1367;DHT22;16877;48.810;9.282;2023-11-21T12:20:31;20.60;73.60
1367;DHT22;16877;48.810;9.282;2023-11-21T12:23:04;20.80;72.90
1367;DHT22;16877;48.810;9.282;2023-11-21T12:25:32;20.50;72.10
1367;DHT22;16877;48.810;9.282;2023-11-21T12:28:01;20.70;72.20
1367;DHT22;16877;48.810;9.282;2023-11-21T12:30:29;20.50;72.00
1367;DHT22;16877;48.810;9.282;2023-11-21T12:32:58;20.40;71.70
1367;DHT22;16877;48.810;9.282;2023-11-21T12:35:26;20.90;72.60
1367;DHT22;16877;48.810;9.282;2023-11-21T12:37:54;20.60;72.00
1367;DHT22;16877;48.810;9.282;2023-11-21T12:40:23;20.60;71.90
1367;DHT22;16877;48.810;9.282;2023-11-21T12:42:51;20.80;72.00
1367;DHT22;16877;48.810;9.282;2023-11-21T12:45:20;20.80;71.80
1367;DHT22;16877;48.810;9.282;2023-11-21T12:47:47;20.70;71.80
1367;DHT22;16877;48.810;9.282;2023-11-21T12:50:15;20.90;72.00
1367;DHT22;16877;48.810;9.282;2023-11-21T12:52:42;21.20;78.70
1367;DHT22;16877;48.810;9.282;2023-11-21T12:55:16;21.70;78.30
1367;DHT22;16877;48.810;9.282;2023-11-21T12:57:44;21.80;76.10
1367;DHT22;16877;48.810;9.282;2023-11-21T13:00:15;21.90;73.90
1367;DHT22;16877;48.810;9.282;2023-11-21T13:02:53;21.50;71.90
1367;DHT22;16877;48.810;9.282;2023-11-21T13:05:29;21.60;71.60
1367;DHT22;16877;48.810;9.282;2023-11-21T13:07:57;21.90;71.30
1367;DHT22;16877;48.810;9.282;2023-11-21T13:10:26;22.00;71.10
1367;DHT22;16877;48.810;9.282;2023-11-21T13:12:56;22.50;71.00
1367;DHT22;16877;48.810;9.282;2023-11-21T13:15:26;22.80;71.60
1367;DHT22;16877;48.810;9.282;2023-11-21T13:17:54;23.30;71.80
1367;DHT22;16877;48.810;9.282;2023-11-21T13:20:21;23.40;71.50
1367;DHT22;16877;48.810;9.282;2023-11-21T13:22:50;23.00;70.60
1367;DHT22;16877;48.810;9.282;2023-11-21T13:25:20;23.00;69.90
1367;DHT22;16877;48.810;9.282;2023-11-21T13:27:47;22.90;69.50
1367;DHT22;16877;48.810;9.282;2023-11-21T13:30:14;22.90;68.80
1367;DHT22;16877;48.810;9.282;2023-11-21T13:32:43;22.40;67.60
1367;DHT22;16877;48.810;9.282;2023-11-21T13:35:11;22.70;68.30
1367;DHT22;16877;48.810;9.282;2023-11-21T13:37:50;22.20;67.30
1367;DHT22;16877;48.810;9.282;2023-11-21T13:40:22;22.00;68.10
1367;DHT22;16877;48.810;9.282;2023-11-21T13:42:51;21.80;66.80
1367;DHT22;16877;48.810;9.282;2023-11-21T13:45:20;21.70;66.70
1367;DHT22;16877;48.810;9.282;2023-11-21T13:47:50;21.60;66.80
1367;DHT22;16877;48.810;9.282;2023-11-21T13:50:23;21.80;67.10
1367;DHT22;16877;48.810;9.282;2023-11-21T13:52:54;21.60;67.00
1367;DHT22;16877;48.810;9.282;2023-11-21T13:55:21;21.40;67.40
1367;DHT22;16877;48.810;9.282;2023-11-21T13:57:51;21.20;67.00
1367;DHT22;16877;48.810;9.282;2023-11-21T14:00:18;21.30;67.40
1367;DHT22;16877;48.810;9.282;2023-11-21T14:03:11;21.10;67.10
1367;DHT22;16877;48.810;9.282;2023-11-21T14:05:44;20.80;66.80
1367;DHT22;16877;48.810;9.282;2023-11-21T14:08:12;20.80;67.30
1367;DHT22;16877;48.810;9.282;2023-11-21T14:10:42;20.60;67.20
1367;DHT22;16877;48.810;9.282;2023-11-21T14:13:10;20.90;67.70
1367;DHT22;16877;48.810;9.282;2023-11-21T14:15:39;20.80;67.90
1367;DHT22;16877;48.810;9.282;2023-11-21T14:18:08;20.80;67.90
1367;DHT22;16877;48.810;9.282;2023-11-21T14:20:38;20.70;67.80
1367;DHT22;16877;48.810;9.282;2023-11-21T14:23:05;20.60;67.90
1367;DHT22;16877;48.810;9.282;2023-11-21T14:25:32;20.50;68.00
1367;DHT22;16877;48.810;9.282;2023-11-21T14:27:59;20.20;67.60
1367;DHT22;16877;48.810;9.282;2023-11-21T14:30:26;20.20;67.80
1367;DHT22;16877;48.810;9.282;2023-11-21T14:32:54;20.10;68.40
1367;DHT22;16877;48.810;9.282;2023-11-21T14:35:21;20.40;68.60
1367;DHT22;16877;48.810;9.282;2023-11-21T14:37:49;20.30;68.70
1367;DHT22;16877;48.810;9.282;2023-11-21T14:40:16;20.40;68.80
1367;DHT22;16877;48.810;9.282;2023-11-21T14:42:47;20.10;68.70
1367;DHT22;16877;48.810;9.282;2023-11-21T14:45:14;20.30;68.90
1367;DHT22;16877;48.810;9.282;2023-11-21T14:47:45;20.10;68.70
1367;DHT22;16877;48.810;9.282;2023-11-21T14:50:20;20.20;68.90
1367;DHT22;16877;48.810;9.282;2023-11-21T14:53:16;20.10;69.00
1367;DHT22;16877;48.810;9.282;2023-11-21T14:55:54;19.90;68.90
1367;DHT22;16877;48.810;9.282;2023-11-21T14:58:24;19.80;68.60
1367;DHT22;16877;48.810;9.282;2023-11-21T15:00:54;19.90;69.00
1367;DHT22;16877;48.810;9.282;2023-11-21T15:03:24;19.90;69.10
1367;DHT22;16877;48.810;9.282;2023-11-21T15:06:05;19.90;69.30
1367;DHT22;16877;48.810;9.282;2023-11-21T15:08:48;19.70;69.00
1367;DHT22;16877;48.810;9.282;2023-11-21T15:11:19;19.90;69.30
1367;DHT22;16877;48.810;9.282;2023-11-21T15:13:50;19.80;69.30
1367;DHT22;16877;48.810;9.282;2023-11-21T15:16:18;19.50;69.10
1367;DHT22;16877;48.810;9.282;2023-11-21T15:18:44;19.80;69.30
1367;DHT22;16877;48.810;9.282;2023-11-21T15:21:11;19.70;69.30
1367;DHT22;16877;48.810;9.282;2023-11-21T15:23:38;19.60;69.20
1367;DHT22;16877;48.810;9.282;2023-11-21T15:26:08;19.60;69.20
1367;DHT22;16877;48.810;9.282;2023-11-21T15:28:35;19.80;69.30
1367;DHT22;16877;48.810;9.282;2023-11-21T15:31:02;19.60;69.20
1367;DHT22;16877;48.810;9.282;2023-11-21T15:33:29;19.30;68.80
1367;DHT22;16877;48.810;9.282;2023-11-21T15:35:56;19.40;68.80
1367;DHT22;16877;48.810;9.282;2023-11-21T15:38:23;19.30;68.80
1367;DHT22;16877;48.810;9.282;2023-11-21T15:40:50;19.20;68.70
1367;DHT22;16877;48.810;9.282;2023-11-21T15:43:18;19.30;68.90
1367;DHT22;16877;48.810;9.282;2023-11-21T15:45:45;19.10;68.90
1367;DHT22;16877;48.810;9.282;2023-11-21T15:48:11;19.20;69.10
1367;DHT22;16877;48.810;9.282;2023-11-21T15:50:38;19.10;69.10
1367;DHT22;16877;48.810;9.282;2023-11-21T15:53:05;19.00;68.80
1367;DHT22;16877;48.810;9.282;2023-11-21T15:55:32;19.60;79.70
1367;DHT22;16877;48.810;9.282;2023-11-21T15:58:01;19.70;82.70
1367;DHT22;16877;48.810;9.282;2023-11-21T16:00:31;20.40;79.80
1367;DHT22;16877;48.810;9.282;2023-11-21T16:02:58;20.30;76.70
1367;DHT22;16877;48.810;9.282;2023-11-21T16:05:24;20.30;73.40
1367;DHT22;16877;48.810;9.282;2023-11-21T16:07:52;20.30;73.00